Terminal Aerodrome Forecast
Issued by NWS

Home | Current Version | Previous Version | Text Only | Print | Product List | Glossary On
Versions: 1 2 3 4 5 6 7 8 9 10 11 12
000
FTUS42 KTAE 190531
TAFECP
TAF
KECP 190531Z 1906/2006 21008KT P6SM BKN025
     FM190700 24010G15KT 6SM SHRA BKN025
     FM190800 34012G20KT P6SM SCT030
     FM192300 35007KT P6SM SKC=

USA.gov is the U.S. government's official web portal to all federal, state and local government web resources and services.